Latest Coastal Weather Observations for Horn Island

IDQ60701

Issued at 12:03 am EST Friday 3 February 2023 (issued every 10 minutes, with the page automatically refreshed every 10 minutes)

About coastal observations | Map of coastal stations | Coastal observations for QLD | Marine services | Other Formats
Station Details ID: 027058 Name: HORN ISLAND Lat: -10.58 Lon: 142.29 Height: 4.0 m
Data from the previous 72 hours. | See also: Recent months at Horn Island
Date/Time
EST
Wind Sea
Height
m
Swell Vis
km
Cloud Weather Temp
°C
Press
MSL
hPa
Rain since
9am
mm
Dir  Spd
kts
Gust
kts
Height
m
Period
s
Dir
03/12:00am CALM 0 0 - - - - 10 Partly cloudy - 26.5 1006.2 29.6
 
Date/Time
EST
Wind Sea
Height
m
Swell Vis
km
Cloud Weather Temp
°C
Press
MSL
hPa
Rain since
9am
mm
Dir  Spd
kts
Gust
kts
Height
m
Period
s
Dir
02/11:30pm CALM 0 0 - - - - 10 - - 26.6 1006.5 29.6
02/11:00pm W 2 4 - - - - 10 - - 27.1 1006.6 29.6
02/10:30pm W 5 6 - - - - 10 - - 27.2 1006.6 29.6
02/10:00pm W 7 10 - - - - 10 - - 27.5 1006.5 29.6
02/09:30pm W 9 15 - - - - 10 Partly cloudy - 27.8 1006.5 29.6
02/09:00pm W 8 15 - - - - 10 Cloudy - 27.6 1006.2 29.6
02/08:30pm W 5 7 - - - - 10 - - 27.1 1005.6 29.6
02/08:00pm W 8 12 - - - - 10 Partly cloudy - 27.4 1005.0 29.6
02/07:30pm WNW 8 12 - - - - 10 Partly cloudy - 27.5 1004.8 29.6
02/07:00pm WNW 9 13 - - - - 10 Partly cloudy - 27.4 1004.7 29.6
02/06:30pm W 10 19 - - - - 10 Partly cloudy - 27.6 1004.6 29.6
02/06:00pm WNW 12 18 - - - - 10 Cloudy - 27.4 1004.1 29.6
02/05:30pm WNW 10 15 - - - - 10 Partly cloudy - 27.4 1003.6 29.6
02/05:00pm WNW 11 17 - - - - 10 Cloudy - 27.5 1003.6 29.6
02/04:30pm W 10 16 - - - - 10 Partly cloudy - 27.3 1003.7 29.6
02/04:00pm WNW 11 17 - - - - 10 Partly cloudy - 27.2 1003.6 29.6
02/03:30pm WNW 9 16 - - - - 10 Partly cloudy - 26.7 1003.9 29.6
02/03:18pm WNW 9 14 - - - - 10 Partly cloudy - 26.4 1004.2 29.6
02/03:00pm WNW 10 15 - - - - 10 Cloudy Rain 26.4 1004.5 29.6
02/02:30pm WNW 9 14 - - - - 10 Partly cloudy - 26.5 1004.9 29.6
02/02:23pm WNW 9 15 - - - - 10 Partly cloudy - 26.5 1005.0 29.6
02/02:15pm WNW 8 13 - - - - 10 Partly cloudy - 26.4 1005.1 29.6
02/02:00pm WNW 8 13 - - - - 10 Partly cloudy - 26.4 1005.3 29.6
02/01:54pm WNW 8 11 - - - - 10 Partly cloudy - 26.4 1005.3 29.4
02/01:30pm WNW 8 14 - - - - 10 Partly cloudy - 26.2 1005.8 29.2
02/01:19pm WSW 4 6 - - - - 10 Partly cloudy - 25.3 1006.2 29.0
02/01:03pm SW 4 6 - - - - 10 Partly cloudy - 24.9 1006.6 28.8
02/01:00pm SW 4 6 - - - - 10 Partly cloudy - 24.8 1006.7 28.8
02/12:57pm SW 4 6 - - - - 10 Partly cloudy - 24.9 1006.8 28.8
02/12:30pm W 9 14 - - - - 10 Partly cloudy - 24.9 1007.2 28.4
02/12:10pm WNW 10 16 - - - - 10 Partly cloudy - 26.4 1007.4 28.0
02/12:00pm WNW 10 15 - - - - 10 Cloudy Rain 26.3 1007.4 27.8
02/11:30am NW 9 14 - - - - 10 Partly cloudy - 25.9 1007.3 26.8
02/11:03am NNW 9 13 - - - - 10 Partly cloudy - 25.7 1007.6 26.6
02/11:00am NNW 10 14 - - - - 10 Partly cloudy - 25.6 1007.6 26.6
02/10:55am NNW 11 19 - - - - 10 Partly cloudy - 25.5 1007.7 26.4
02/10:30am NNW 14 21 - - - - 4 Partly cloudy - 25.7 1007.9 25.2
02/10:00am NNW 9 18 - - - - 2 Partly cloudy - 26.4 1007.8 19.4
02/09:37am N 14 19 - - - - 2 Partly cloudy - 26.5 1007.8 6.4
02/09:33am N 15 20 - - - - 5 Partly cloudy - 26.7 1007.7 1.0
02/09:30am N 14 20 - - - - 10 Partly cloudy - 26.9 1007.7 0.2
02/09:08am NNW 11 16 - - - - 10 Partly cloudy - 26.6 1007.6 0.0
02/09:00am N 9 14 - - - - 10 Cloudy Rain 26.7 1007.8 17.8
02/08:49am NE 3 9 - - - - 10 Partly cloudy - 26.5 1007.8 17.8
02/08:30am N 3 5 - - - - 8 Partly cloudy - 25.0 1007.8 17.6
02/08:29am N 3 5 - - - - 7 Partly cloudy - 24.9 1007.7 17.6
02/08:02am W 10 16 - - - - 0.6 Partly cloudy - 24.6 1007.5 15.8
02/08:00am W 11 18 - - - - 0.6 Partly cloudy - 24.5 1007.4 15.4
02/07:48am NW 12 30 - - - - 2 Partly cloudy - 25.6 1007.7 5.6
02/07:46am NNW 11 17 - - - - 5 Partly cloudy - 27.1 1007.6 4.2
02/07:45am NNW 11 17 - - - - 5 Partly cloudy - 27.1 1007.5 3.4
02/07:30am NNW 11 17 - - - - 10 Partly cloudy - 27.2 1006.9 2.6
02/07:00am WSW 3 4 - - - - 10 Partly cloudy - 26.5 1006.6 2.6
02/06:30am NNW 4 5 - - - - 10 Partly cloudy - 26.0 1006.4 2.6
02/06:00am W 4 6 - - - - 10 Partly cloudy Rain 25.6 1005.7 2.6
02/05:34am W 8 13 - - - - 10 Partly cloudy - 25.3 1005.6 2.6
02/05:30am W 8 14 - - - - 10 Partly cloudy - 25.5 1005.7 2.6
02/05:29am W 9 15 - - - - 10 Partly cloudy - 25.5 1005.6 2.6
02/05:13am W 13 21 - - - - 5 Partly cloudy - 25.8 1005.8 1.8
02/05:11am W 13 23 - - - - 6 Partly cloudy - 25.9 1005.8 1.6
02/05:04am W 8 23 - - - - 10 Partly cloudy - 26.3 1005.6 1.0
02/05:00am W 5 6 - - - - 10 Partly cloudy - 27.2 1005.4 0.8
02/04:30am W 4 6 - - - - 10 Partly cloudy - 27.7 1005.2 0.6
02/04:00am W 4 6 - - - - 10 - - 27.7 1005.3 0.6
02/03:30am WNW 5 7 - - - - 10 - - 27.8 1005.3 0.6
02/03:00am WNW 5 7 - - - - 10 Mostly cloudy - 27.8 1005.6 0.6
02/02:30am WNW 6 9 - - - - 10 - - 28.0 1005.8 0.6
02/02:00am WNW 4 5 - - - - 10 - - 27.7 1005.8 0.6
02/01:30am WNW 4 6 - - - - 10 - - 27.8 1006.0 0.6
02/01:00am WNW 4 7 - - - - 10 Partly cloudy - 27.9 1006.4 0.6
02/12:30am WNW 5 7 - - - - 10 Partly cloudy - 28.0 1006.9 0.6
02/12:00am NW 5 7 - - - - 10 Cloudy - 27.9 1007.2 0.6
 
Date/Time
EST
Wind Sea
Height
m
Swell Vis
km
Cloud Weather Temp
°C
Press
MSL
hPa
Rain since
9am
mm
Dir  Spd
kts
Gust
kts
Height
m
Period
s
Dir
01/11:30pm WNW 4 5 - - - - 10 Partly cloudy - 27.8 1007.1 0.6
01/11:00pm WSW 3 5 - - - - 10 - - 27.7 1007.2 0.6
01/10:30pm W 5 7 - - - - 10 Partly cloudy - 27.7 1007.4 0.6
01/10:00pm WSW 3 4 - - - - 10 Partly cloudy - 27.7 1007.5 0.6
01/09:30pm WSW 2 4 - - - - 10 Partly cloudy - 27.7 1007.5 0.6
01/09:00pm W 4 4 - - - - 10 - - 27.5 1007.1 0.6
01/08:30pm SW 4 5 - - - - 10 - - 27.9 1006.6 0.6
01/08:00pm WSW 1 4 - - - - 10 - - 28.1 1006.6 0.6
01/07:30pm WSW 4 6 - - - - 10 - - 28.2 1006.1 0.6
01/07:00pm W 4 5 - - - - 10 Partly cloudy - 28.5 1006.2 0.6
01/06:30pm SW 5 7 - - - - 10 - - 28.5 1005.8 0.6
01/06:00pm WSW 7 10 - - - - 10 Cloudy Rain 27.9 1005.4 0.6
01/05:30pm WNW 11 16 - - - - 10 Partly cloudy - 27.2 1005.2 0.6
01/05:00pm W 10 16 - - - - 10 Partly cloudy - 30.3 1005.0 0.6
01/04:30pm W 13 20 - - - - 10 Partly cloudy - 30.7 1004.8 0.6
01/04:00pm W 11 21 - - - - 10 Partly cloudy - 31.0 1004.8 0.6
01/03:30pm WNW 11 16 - - - - 10 Partly cloudy - 30.9 1004.6 0.6
01/03:00pm NW 10 15 - - - - 10 Mostly cloudy - 30.6 1004.9 0.6
01/02:30pm WNW 12 18 - - - - 10 Partly cloudy - 31.2 1005.4 0.6
01/02:00pm WNW 11 19 - - - - 10 Partly cloudy - 30.9 1006.0 0.6
01/01:30pm SW 7 10 - - - - 10 Partly cloudy - 28.3 1006.4 0.6
01/01:00pm WNW 9 16 - - - - 10 Partly cloudy - 30.9 1006.8 0.0
01/12:30pm NW 11 16 - - - - 10 Partly cloudy - 31.6 1007.3 0.0
01/12:00pm WNW 10 15 - - - - 10 Cloudy - 31.4 1007.4 0.0
01/11:30am WNW 9 13 - - - - 10 Partly cloudy - 31.7 1007.8 0.0
01/11:00am WNW 10 14 - - - - 10 Partly cloudy - 31.3 1008.1 0.0
01/10:30am WNW 10 13 - - - - 10 Partly cloudy - 30.8 1008.1 0.0
01/10:00am NW 9 13 - - - - 10 Partly cloudy - 30.9 1008.3 0.0
01/09:30am NW 8 12 - - - - 10 Partly cloudy - 29.8 1008.3 0.0
01/09:00am WNW 7 11 - - - - 10 Mostly cloudy - 30.3 1008.2 0.6
01/08:30am WNW 8 12 - - - - 10 - - 29.8 1007.9 0.6
01/08:00am WNW 7 11 - - - - 10 - - 29.3 1007.6 0.6
01/07:30am WNW 6 10 - - - - 10 Partly cloudy - 28.4 1007.2 0.6
01/07:00am WNW 5 7 - - - - 10 Partly cloudy - 27.7 1006.8 0.6
01/06:30am NW 6 10 - - - - 10 Partly cloudy - 27.1 1006.6 0.6
01/06:00am WNW 4 5 - - - - 10 - - 26.4 1006.4 0.6
01/05:30am SW 1 3 - - - - 10 - - 26.3 1006.1 0.6
01/05:00am SW 3 4 - - - - 10 - - 26.2 1005.9 0.6
01/04:30am SW 3 3 - - - - 10 - - 26.4 1005.9 0.6
01/04:00am SSW 4 6 - - - - 10 - - 26.4 1005.8 0.4
01/03:30am WSW 3 4 - - - - 10 - - 26.6 1006.1 0.4
01/03:00am WNW 3 4 - - - - 10 - - 26.8 1006.6 0.4
01/02:30am WNW 3 4 - - - - 10 - - 26.8 1006.5 0.4
01/02:00am WSW 3 4 - - - - 10 - - 26.7 1006.7 0.4
01/01:30am W 4 5 - - - - 10 - - 26.8 1006.8 0.4
01/01:00am WNW 4 5 - - - - 10 - - 26.7 1007.1 0.4
01/12:30am W 4 5 - - - - 10 - - 26.7 1007.5 0.4
01/12:00am CALM 0 0 - - - - 10 - - 26.7 1007.7 0.4
 
Date/Time
EST
Wind Sea
Height
m
Swell Vis
km
Cloud Weather Temp
°C
Press
MSL
hPa
Rain since
9am
mm
Dir  Spd
kts
Gust
kts
Height
m
Period
s
Dir
31/11:30pm CALM 0 0 - - - - 10 - - 26.8 1007.9 0.4
31/11:00pm CALM 0 0 - - - - 10 - - 26.5 1008.1 0.4
31/10:30pm CALM 0 0 - - - - 10 - - 26.8 1008.2 0.4
31/10:00pm CALM 0 0 - - - - 10 Partly cloudy - 27.0 1008.1 0.4
31/09:30pm WSW 3 4 - - - - 10 Partly cloudy - 26.9 1007.8 0.4
31/09:00pm W 5 7 - - - - 10 Mostly clear - 27.1 1007.6 0.4
31/08:30pm W 8 12 - - - - 10 Partly cloudy - 27.3 1007.4 0.4
31/08:00pm WNW 5 8 - - - - 10 Cloudy - 27.8 1007.1 0.4
31/07:30pm WNW 6 9 - - - - 10 Partly cloudy - 27.7 1006.8 0.4
31/07:00pm WNW 6 9 - - - - 10 Partly cloudy - 27.5 1006.5 0.4
31/06:30pm NW 7 11 - - - - 10 Partly cloudy - 27.5 1006.1 0.4
31/06:00pm NW 10 14 - - - - 10 Cloudy - 28.5 1005.9 0.2
31/05:30pm NW 10 17 - - - - 10 Partly cloudy - 28.4 1005.6 0.2
31/05:00pm WNW 8 11 - - - - 10 Partly cloudy - 29.9 1005.4 0.2
31/04:30pm WNW 9 13 - - - - 10 Partly cloudy - 30.9 1005.3 0.2
31/04:00pm NW 10 13 - - - - 10 - - 31.1 1005.1 0.2
31/03:30pm NW 9 15 - - - - 10 Partly cloudy - 31.3 1005.1 0.2
31/03:00pm NW 9 12 - - - - 10 Mostly clear - 31.2 1005.7 0.2
31/02:30pm NW 9 13 - - - - 10 - - 31.3 1006.0 0.2
31/02:00pm NNW 8 13 - - - - 10 - - 30.7 1006.3 0.2
31/01:30pm NNW 8 11 - - - - 10 - - 30.9 1006.7 0.2
31/01:00pm NNW 9 12 - - - - 10 - - 30.9 1006.9 0.2
31/12:30pm NNW 7 10 - - - - 10 - - 30.2 1007.4 0.2
31/12:00pm NNW 8 10 - - - - 10 Mostly clear - 30.5 1008.0 0.2
31/11:30am NNW 6 8 - - - - 10 - - 30.4 1008.5 0.2
31/11:00am N 5 7 - - - - 10 Partly cloudy - 29.4 1008.8 0.2
31/10:30am NNE 6 10 - - - - 10 Partly cloudy - 28.9 1009.1 0.2
31/10:00am N 5 7 - - - - 10 Partly cloudy - 29.5 1009.2 0.0
31/09:30am NNW 5 6 - - - - 10 Partly cloudy - 29.1 1009.2 0.0
31/09:00am N 3 5 - - - - 10 Partly cloudy - 29.1 1009.2 6.8
31/08:30am CALM 0 0 - - - - 10 - - 29.1 1008.7 6.8
31/08:00am CALM 0 0 - - - - 10 - - 27.8 1008.6 6.8
31/07:30am CALM 0 0 - - - - 10 - - 27.0 1008.5 6.8
31/07:00am CALM 0 0 - - - - 10 Partly cloudy - 26.4 1008.2 6.8
31/06:30am CALM 0 0 - - - - 10 Partly cloudy - 26.2 1007.6 6.8
31/06:00am SSW 3 4 - - - - 10 - - 26.0 1007.2 6.8
31/05:30am SSW 2 3 - - - - 10 - - 26.0 1006.9 6.8
31/05:00am CALM 0 3 - - - - 10 - - 26.0 1006.6 6.8
31/04:30am CALM 0 1 - - - - 10 - - 26.1 1006.4 6.8
31/04:00am CALM 0 0 - - - - 10 - - 26.2 1006.4 6.8
31/03:30am SSW 2 3 - - - - 10 - - 26.1 1006.3 6.8
31/03:00am CALM 0 0 - - - - 10 - - 26.5 1006.4 6.8
31/02:30am CALM 0 0 - - - - 10 - - 26.4 1006.3 6.8
31/02:00am S 1 3 - - - - 10 - - 26.5 1006.6 6.8
31/01:30am CALM 0 0 - - - - 10 - - 26.7 1007.1 6.8
31/01:00am CALM 0 0 - - - - 10 Partly cloudy - 26.7 1007.5 6.8
31/12:30am CALM 0 1 - - - - 10 Partly cloudy - 26.9 1008.0 6.8

Other formats

Comma delimited format used in spreadsheet applications
http://www.bom.gov.au/fwo/IDQ60701/IDQ60701.94174.axf

JavaScript Object Notation format (JSON) in row-major order
http://www.bom.gov.au/fwo/IDQ60701/IDQ60701.94174.json

Data quality

Most of these data are generated automatically and are frequently updated. Quality checks on data are not normally performed. It is possible for incorrect values to appear. Refer to information at About Latest Weather Observations and please check the disclaimer before using these data.